sensor_id;sensor_type;location;lat;lon;timestamp;temperature;humidity
69492;DHT22;56692;52.016;4.356;2023-04-03T00:01:57;15.40;47.30
69492;DHT22;56692;52.016;4.356;2023-04-03T00:04:22;15.40;47.30
69492;DHT22;56692;52.016;4.356;2023-04-03T00:06:48;15.40;47.10
69492;DHT22;56692;52.016;4.356;2023-04-03T00:09:14;15.40;47.30
69492;DHT22;56692;52.016;4.356;2023-04-03T00:11:40;15.40;47.20
69492;DHT22;56692;52.016;4.356;2023-04-03T00:14:06;15.30;47.10
69492;DHT22;56692;52.016;4.356;2023-04-03T00:16:31;15.30;47.10
69492;DHT22;56692;52.016;4.356;2023-04-03T00:18:57;15.30;47.10
69492;DHT22;56692;52.016;4.356;2023-04-03T00:21:22;15.30;47.10
69492;DHT22;56692;52.016;4.356;2023-04-03T00:23:51;15.30;47.00
69492;DHT22;56692;52.016;4.356;2023-04-03T00:26:17;15.30;47.20
69492;DHT22;56692;52.016;4.356;2023-04-03T00:28:42;15.30;46.90
69492;DHT22;56692;52.016;4.356;2023-04-03T00:31:08;15.30;47.00
69492;DHT22;56692;52.016;4.356;2023-04-03T00:33:34;15.30;47.00
69492;DHT22;56692;52.016;4.356;2023-04-03T00:36:06;15.30;46.90
69492;DHT22;56692;52.016;4.356;2023-04-03T00:38:32;15.20;46.90
69492;DHT22;56692;52.016;4.356;2023-04-03T00:40:58;15.20;47.00
69492;DHT22;56692;52.016;4.356;2023-04-03T00:43:25;15.20;47.00
69492;DHT22;56692;52.016;4.356;2023-04-03T00:45:54;15.20;46.80
69492;DHT22;56692;52.016;4.356;2023-04-03T00:48:25;15.20;46.80
69492;DHT22;56692;52.016;4.356;2023-04-03T00:50:52;15.20;46.80
69492;DHT22;56692;52.016;4.356;2023-04-03T00:53:22;15.20;46.70
69492;DHT22;56692;52.016;4.356;2023-04-03T00:55:51;15.10;46.70
69492;DHT22;56692;52.016;4.356;2023-04-03T00:58:20;15.10;46.70
69492;DHT22;56692;52.016;4.356;2023-04-03T01:00:51;15.10;46.80
69492;DHT22;56692;52.016;4.356;2023-04-03T01:03:23;15.10;46.70
69492;DHT22;56692;52.016;4.356;2023-04-03T01:05:49;15.10;46.70
69492;DHT22;56692;52.016;4.356;2023-04-03T01:08:15;15.10;46.90
69492;DHT22;56692;52.016;4.356;2023-04-03T01:10:41;15.10;46.60
69492;DHT22;56692;52.016;4.356;2023-04-03T01:13:23;15.10;46.60
69492;DHT22;56692;52.016;4.356;2023-04-03T01:15:49;15.00;46.70
69492;DHT22;56692;52.016;4.356;2023-04-03T01:18:15;15.00;46.70
69492;DHT22;56692;52.016;4.356;2023-04-03T01:26:07;15.00;46.50
69492;DHT22;56692;52.016;4.356;2023-04-03T01:28:35;15.00;46.50
69492;DHT22;56692;52.016;4.356;2023-04-03T01:31:27;15.00;46.50
69492;DHT22;56692;52.016;4.356;2023-04-03T01:33:53;15.00;46.60
69492;DHT22;56692;52.016;4.356;2023-04-03T01:36:25;15.00;46.50
69492;DHT22;56692;52.016;4.356;2023-04-03T01:38:52;14.90;46.60
69492;DHT22;56692;52.016;4.356;2023-04-03T01:41:18;14.90;46.40
69492;DHT22;56692;52.016;4.356;2023-04-03T01:43:46;14.90;46.30
69492;DHT22;56692;52.016;4.356;2023-04-03T01:46:12;14.90;46.40
69492;DHT22;56692;52.016;4.356;2023-04-03T01:48:37;14.90;46.40
69492;DHT22;56692;52.016;4.356;2023-04-03T01:51:03;14.90;46.60
69492;DHT22;56692;52.016;4.356;2023-04-03T01:53:30;14.80;46.50
69492;DHT22;56692;52.016;4.356;2023-04-03T01:55:55;14.80;46.20
69492;DHT22;56692;52.016;4.356;2023-04-03T01:58:21;14.80;46.30
69492;DHT22;56692;52.016;4.356;2023-04-03T02:00:47;14.80;46.30
69492;DHT22;56692;52.016;4.356;2023-04-03T02:03:13;14.80;46.50
69492;DHT22;56692;52.016;4.356;2023-04-03T02:05:40;14.80;46.30
69492;DHT22;56692;52.016;4.356;2023-04-03T02:08:05;14.80;46.20
69492;DHT22;56692;52.016;4.356;2023-04-03T02:10:32;14.80;46.30
69492;DHT22;56692;52.016;4.356;2023-04-03T02:12:57;14.80;46.30
69492;DHT22;56692;52.016;4.356;2023-04-03T02:15:23;14.80;46.30
69492;DHT22;56692;52.016;4.356;2023-04-03T02:17:49;14.80;46.30
69492;DHT22;56692;52.016;4.356;2023-04-03T02:20:15;14.80;46.30
69492;DHT22;56692;52.016;4.356;2023-04-03T02:22:40;14.70;46.20
69492;DHT22;56692;52.016;4.356;2023-04-03T02:25:06;14.70;46.20
69492;DHT22;56692;52.016;4.356;2023-04-03T02:27:32;14.70;46.10
69492;DHT22;56692;52.016;4.356;2023-04-03T02:29:58;14.70;46.20
69492;DHT22;56692;52.016;4.356;2023-04-03T02:32:23;14.70;46.20
69492;DHT22;56692;52.016;4.356;2023-04-03T02:34:49;14.70;46.10
69492;DHT22;56692;52.016;4.356;2023-04-03T02:37:15;14.70;46.20
69492;DHT22;56692;52.016;4.356;2023-04-03T02:39:41;14.70;46.10
69492;DHT22;56692;52.016;4.356;2023-04-03T02:42:06;14.60;46.20
69492;DHT22;56692;52.016;4.356;2023-04-03T02:44:33;14.60;46.20
69492;DHT22;56692;52.016;4.356;2023-04-03T02:46:58;14.60;46.20
69492;DHT22;56692;52.016;4.356;2023-04-03T02:49:24;14.60;46.10
69492;DHT22;56692;52.016;4.356;2023-04-03T02:51:50;14.60;46.10
69492;DHT22;56692;52.016;4.356;2023-04-03T02:54:16;14.60;46.20
69492;DHT22;56692;52.016;4.356;2023-04-03T02:56:42;14.60;46.20
69492;DHT22;56692;52.016;4.356;2023-04-03T02:59:08;14.60;46.20
69492;DHT22;56692;52.016;4.356;2023-04-03T03:01:33;14.60;46.10
69492;DHT22;56692;52.016;4.356;2023-04-03T03:04:00;14.60;46.10
69492;DHT22;56692;52.016;4.356;2023-04-03T03:06:25;14.50;46.20
69492;DHT22;56692;52.016;4.356;2023-04-03T03:08:51;14.50;46.10
69492;DHT22;56692;52.016;4.356;2023-04-03T03:11:17;14.50;46.10
69492;DHT22;56692;52.016;4.356;2023-04-03T03:13:43;14.50;46.10
69492;DHT22;56692;52.016;4.356;2023-04-03T03:16:09;14.50;46.10
69492;DHT22;56692;52.016;4.356;2023-04-03T03:18:35;14.50;46.20
69492;DHT22;56692;52.016;4.356;2023-04-03T03:21:02;14.50;46.10
69492;DHT22;56692;52.016;4.356;2023-04-03T03:23:30;14.40;46.00
69492;DHT22;56692;52.016;4.356;2023-04-03T03:26:09;14.40;46.10
69492;DHT22;56692;52.016;4.356;2023-04-03T03:28:35;14.40;46.10
69492;DHT22;56692;52.016;4.356;2023-04-03T03:31:01;14.40;46.10
69492;DHT22;56692;52.016;4.356;2023-04-03T03:33:28;14.40;46.20
69492;DHT22;56692;52.016;4.356;2023-04-03T03:35:54;14.40;46.20
69492;DHT22;56692;52.016;4.356;2023-04-03T03:38:20;14.40;46.10
69492;DHT22;56692;52.016;4.356;2023-04-03T03:40:50;14.40;46.20
69492;DHT22;56692;52.016;4.356;2023-04-03T03:43:16;14.40;46.30
69492;DHT22;56692;52.016;4.356;2023-04-03T03:45:42;14.30;46.10
69492;DHT22;56692;52.016;4.356;2023-04-03T03:48:08;14.40;46.20
69492;DHT22;56692;52.016;4.356;2023-04-03T03:50:34;14.40;46.20
69492;DHT22;56692;52.016;4.356;2023-04-03T03:53:00;14.40;46.20
69492;DHT22;56692;52.016;4.356;2023-04-03T03:55:26;14.30;46.10
69492;DHT22;56692;52.016;4.356;2023-04-03T03:57:51;14.30;46.20
69492;DHT22;56692;52.016;4.356;2023-04-03T04:00:17;14.30;46.10
69492;DHT22;56692;52.016;4.356;2023-04-03T04:02:43;14.30;46.00
69492;DHT22;56692;52.016;4.356;2023-04-03T04:05:09;14.30;46.00
69492;DHT22;56692;52.016;4.356;2023-04-03T04:07:35;14.30;46.10
69492;DHT22;56692;52.016;4.356;2023-04-03T04:10:01;14.30;46.10
69492;DHT22;56692;52.016;4.356;2023-04-03T04:12:27;14.30;46.00
69492;DHT22;56692;52.016;4.356;2023-04-03T04:14:52;14.30;45.90
69492;DHT22;56692;52.016;4.356;2023-04-03T04:17:18;14.30;45.90
69492;DHT22;56692;52.016;4.356;2023-04-03T04:19:44;14.20;46.00
69492;DHT22;56692;52.016;4.356;2023-04-03T04:22:10;14.20;45.90
69492;DHT22;56692;52.016;4.356;2023-04-03T04:24:35;14.20;46.00
69492;DHT22;56692;52.016;4.356;2023-04-03T04:27:01;14.20;46.00
69492;DHT22;56692;52.016;4.356;2023-04-03T04:29:27;14.20;46.10
69492;DHT22;56692;52.016;4.356;2023-04-03T04:31:52;14.20;46.00
69492;DHT22;56692;52.016;4.356;2023-04-03T04:34:18;14.20;45.90
69492;DHT22;56692;52.016;4.356;2023-04-03T04:36:43;14.20;45.90
69492;DHT22;56692;52.016;4.356;2023-04-03T04:39:09;14.20;46.00
69492;DHT22;56692;52.016;4.356;2023-04-03T04:41:35;14.20;45.90
69492;DHT22;56692;52.016;4.356;2023-04-03T04:44:01;14.20;45.90
69492;DHT22;56692;52.016;4.356;2023-04-03T04:46:26;14.20;45.80
69492;DHT22;56692;52.016;4.356;2023-04-03T04:48:52;14.20;45.80
69492;DHT22;56692;52.016;4.356;2023-04-03T04:51:19;14.20;45.90
69492;DHT22;56692;52.016;4.356;2023-04-03T04:53:44;14.20;45.80
69492;DHT22;56692;52.016;4.356;2023-04-03T04:56:11;14.20;45.70
69492;DHT22;56692;52.016;4.356;2023-04-03T04:58:36;14.20;45.80
69492;DHT22;56692;52.016;4.356;2023-04-03T05:01:08;14.20;45.70
69492;DHT22;56692;52.016;4.356;2023-04-03T05:03:34;14.10;45.80
69492;DHT22;56692;52.016;4.356;2023-04-03T05:06:00;14.20;45.90
69492;DHT22;56692;52.016;4.356;2023-04-03T05:08:26;14.20;45.70
69492;DHT22;56692;52.016;4.356;2023-04-03T05:10:52;14.30;45.80
69492;DHT22;56692;52.016;4.356;2023-04-03T05:13:19;14.40;46.30
69492;DHT22;56692;52.016;4.356;2023-04-03T05:15:45;14.40;46.50
69492;DHT22;56692;52.016;4.356;2023-04-03T05:18:11;14.40;46.60
69492;DHT22;56692;52.016;4.356;2023-04-03T05:20:37;14.40;46.70
69492;DHT22;56692;52.016;4.356;2023-04-03T05:23:03;14.50;46.70
69492;DHT22;56692;52.016;4.356;2023-04-03T05:25:29;14.50;46.80
69492;DHT22;56692;52.016;4.356;2023-04-03T05:27:55;14.50;46.80
69492;DHT22;56692;52.016;4.356;2023-04-03T05:30:21;14.50;46.90
69492;DHT22;56692;52.016;4.356;2023-04-03T05:32:46;14.50;46.90
69492;DHT22;56692;52.016;4.356;2023-04-03T05:35:12;14.50;47.00
69492;DHT22;56692;52.016;4.356;2023-04-03T05:37:38;14.50;47.00
69492;DHT22;56692;52.016;4.356;2023-04-03T05:40:10;14.50;46.90
69492;DHT22;56692;52.016;4.356;2023-04-03T05:42:35;14.60;47.00
69492;DHT22;56692;52.016;4.356;2023-04-03T05:45:01;14.60;47.10
69492;DHT22;56692;52.016;4.356;2023-04-03T05:47:27;14.60;47.00
69492;DHT22;56692;52.016;4.356;2023-04-03T05:49:53;14.60;46.90
69492;DHT22;56692;52.016;4.356;2023-04-03T05:52:31;14.60;46.90
69492;DHT22;56692;52.016;4.356;2023-04-03T05:54:58;14.60;47.00
69492;DHT22;56692;52.016;4.356;2023-04-03T05:57:24;14.70;46.90
69492;DHT22;56692;52.016;4.356;2023-04-03T05:59:49;14.70;46.80
69492;DHT22;56692;52.016;4.356;2023-04-03T06:02:18;14.70;47.00
69492;DHT22;56692;52.016;4.356;2023-04-03T06:04:44;14.80;46.90
69492;DHT22;56692;52.016;4.356;2023-04-03T06:07:21;14.90;46.90
69492;DHT22;56692;52.016;4.356;2023-04-03T06:09:48;14.90;46.90
69492;DHT22;56692;52.016;4.356;2023-04-03T06:12:15;15.00;47.20
69492;DHT22;56692;52.016;4.356;2023-04-03T06:14:41;15.10;47.30
69492;DHT22;56692;52.016;4.356;2023-04-03T06:17:07;15.20;47.70
69492;DHT22;56692;52.016;4.356;2023-04-03T06:19:33;15.30;48.00
69492;DHT22;56692;52.016;4.356;2023-04-03T06:21:59;15.40;48.40
69492;DHT22;56692;52.016;4.356;2023-04-03T06:24:25;15.50;48.10
69492;DHT22;56692;52.016;4.356;2023-04-03T06:26:52;15.60;48.10
69492;DHT22;56692;52.016;4.356;2023-04-03T06:29:19;15.70;48.40
69492;DHT22;56692;52.016;4.356;2023-04-03T06:31:45;15.80;48.40
69492;DHT22;56692;52.016;4.356;2023-04-03T06:34:11;15.80;48.40
69492;DHT22;56692;52.016;4.356;2023-04-03T06:36:38;15.90;48.40
69492;DHT22;56692;52.016;4.356;2023-04-03T06:39:05;15.90;48.30
69492;DHT22;56692;52.016;4.356;2023-04-03T06:41:31;16.00;48.30
69492;DHT22;56692;52.016;4.356;2023-04-03T06:43:57;16.10;48.30
69492;DHT22;56692;52.016;4.356;2023-04-03T06:46:24;16.10;48.40
69492;DHT22;56692;52.016;4.356;2023-04-03T06:48:50;16.10;48.40
69492;DHT22;56692;52.016;4.356;2023-04-03T06:51:23;16.20;48.40
69492;DHT22;56692;52.016;4.356;2023-04-03T06:53:50;16.30;48.20
69492;DHT22;56692;52.016;4.356;2023-04-03T06:56:16;16.30;48.20
69492;DHT22;56692;52.016;4.356;2023-04-03T06:58:43;16.40;48.20
69492;DHT22;56692;52.016;4.356;2023-04-03T07:01:13;16.40;48.20
69492;DHT22;56692;52.016;4.356;2023-04-03T07:03:39;16.50;48.10
69492;DHT22;56692;52.016;4.356;2023-04-03T07:06:06;16.50;48.10
69492;DHT22;56692;52.016;4.356;2023-04-03T07:08:33;16.60;48.00
69492;DHT22;56692;52.016;4.356;2023-04-03T07:10:59;16.60;48.00
69492;DHT22;56692;52.016;4.356;2023-04-03T07:13:25;16.70;48.00
69492;DHT22;56692;52.016;4.356;2023-04-03T07:15:51;16.70;48.00
69492;DHT22;56692;52.016;4.356;2023-04-03T07:18:16;16.70;47.90
69492;DHT22;56692;52.016;4.356;2023-04-03T07:20:42;16.80;47.90
69492;DHT22;56692;52.016;4.356;2023-04-03T07:23:08;16.80;47.90
69492;DHT22;56692;52.016;4.356;2023-04-03T07:25:34;16.90;47.80
69492;DHT22;56692;52.016;4.356;2023-04-03T07:28:00;16.90;47.80
69492;DHT22;56692;52.016;4.356;2023-04-03T07:30:26;16.90;47.80
69492;DHT22;56692;52.016;4.356;2023-04-03T07:32:52;16.90;48.00
69492;DHT22;56692;52.016;4.356;2023-04-03T07:35:18;16.90;47.70
69492;DHT22;56692;52.016;4.356;2023-04-03T07:37:44;16.90;47.90
69492;DHT22;56692;52.016;4.356;2023-04-03T07:40:10;16.90;48.00
69492;DHT22;56692;52.016;4.356;2023-04-03T07:42:37;16.80;48.10
69492;DHT22;56692;52.016;4.356;2023-04-03T07:45:06;16.80;48.30
69492;DHT22;56692;52.016;4.356;2023-04-03T07:47:32;16.70;48.30
69492;DHT22;56692;52.016;4.356;2023-04-03T07:49:57;16.70;48.30
69492;DHT22;56692;52.016;4.356;2023-04-03T07:52:24;16.70;48.40
69492;DHT22;56692;52.016;4.356;2023-04-03T07:54:50;16.70;48.30
69492;DHT22;56692;52.016;4.356;2023-04-03T07:57:16;16.60;48.40
69492;DHT22;56692;52.016;4.356;2023-04-03T07:59:42;16.60;48.40
69492;DHT22;56692;52.016;4.356;2023-04-03T08:02:12;16.60;48.50
69492;DHT22;56692;52.016;4.356;2023-04-03T08:04:38;16.60;48.60
69492;DHT22;56692;52.016;4.356;2023-04-03T08:07:05;16.60;48.70
69492;DHT22;56692;52.016;4.356;2023-04-03T08:09:31;16.60;48.70
69492;DHT22;56692;52.016;4.356;2023-04-03T08:11:58;16.60;48.70
69492;DHT22;56692;52.016;4.356;2023-04-03T08:14:25;16.60;48.70
69492;DHT22;56692;52.016;4.356;2023-04-03T08:16:51;16.60;48.60
69492;DHT22;56692;52.016;4.356;2023-04-03T08:19:17;16.60;48.70
69492;DHT22;56692;52.016;4.356;2023-04-03T08:21:44;16.60;48.70
69492;DHT22;56692;52.016;4.356;2023-04-03T08:24:11;16.70;48.80
69492;DHT22;56692;52.016;4.356;2023-04-03T08:26:37;16.80;48.80
69492;DHT22;56692;52.016;4.356;2023-04-03T08:29:03;16.80;48.70
69492;DHT22;56692;52.016;4.356;2023-04-03T08:31:28;16.90;48.60
69492;DHT22;56692;52.016;4.356;2023-04-03T08:33:56;17.00;48.60
69492;DHT22;56692;52.016;4.356;2023-04-03T08:36:29;17.00;48.60
69492;DHT22;56692;52.016;4.356;2023-04-03T08:38:55;17.10;48.50
69492;DHT22;56692;52.016;4.356;2023-04-03T08:41:41;17.10;48.50
69492;DHT22;56692;52.016;4.356;2023-04-03T08:47:01;17.20;48.40
69492;DHT22;56692;52.016;4.356;2023-04-03T08:49:35;17.20;48.40
69492;DHT22;56692;52.016;4.356;2023-04-03T08:52:10;17.10;48.40
69492;DHT22;56692;52.016;4.356;2023-04-03T08:55:00;17.10;48.50
69492;DHT22;56692;52.016;4.356;2023-04-03T08:57:30;17.00;48.60
69492;DHT22;56692;52.016;4.356;2023-04-03T08:59:59;17.00;48.50
69492;DHT22;56692;52.016;4.356;2023-04-03T09:02:31;17.00;48.50
69492;DHT22;56692;52.016;4.356;2023-04-03T09:04:59;17.00;48.50
69492;DHT22;56692;52.016;4.356;2023-04-03T09:07:58;17.00;48.70
69492;DHT22;56692;52.016;4.356;2023-04-03T09:10:28;16.90;48.60
69492;DHT22;56692;52.016;4.356;2023-04-03T09:21:49;16.90;48.80
69492;DHT22;56692;52.016;4.356;2023-04-03T09:24:16;16.90;48.80
69492;DHT22;56692;52.016;4.356;2023-04-03T09:29:17;17.00;48.80
69492;DHT22;56692;52.016;4.356;2023-04-03T09:31:45;16.90;48.90
69492;DHT22;56692;52.016;4.356;2023-04-03T09:34:32;17.00;48.70
69492;DHT22;56692;52.016;4.356;2023-04-03T09:37:00;17.10;48.80
69492;DHT22;56692;52.016;4.356;2023-04-03T09:39:32;17.20;48.70
69492;DHT22;56692;52.016;4.356;2023-04-03T09:44:37;17.30;48.70
69492;DHT22;56692;52.016;4.356;2023-04-03T09:47:26;17.40;48.60
69492;DHT22;56692;52.016;4.356;2023-04-03T09:50:28;17.50;48.50
69492;DHT22;56692;52.016;4.356;2023-04-03T09:52:54;17.50;48.50
69492;DHT22;56692;52.016;4.356;2023-04-03T09:55:21;17.40;48.60
69492;DHT22;56692;52.016;4.356;2023-04-03T09:58:05;17.40;48.80
69492;DHT22;56692;52.016;4.356;2023-04-03T10:00:54;17.30;48.90
69492;DHT22;56692;52.016;4.356;2023-04-03T10:03:27;17.30;49.10
69492;DHT22;56692;52.016;4.356;2023-04-03T10:05:53;17.30;49.30
69492;DHT22;56692;52.016;4.356;2023-04-03T10:08:40;17.30;49.30
69492;DHT22;56692;52.016;4.356;2023-04-03T10:11:17;17.20;49.10
69492;DHT22;56692;52.016;4.356;2023-04-03T10:14:15;17.20;49.30
69492;DHT22;56692;52.016;4.356;2023-04-03T10:16:46;17.20;49.30
69492;DHT22;56692;52.016;4.356;2023-04-03T10:22:04;17.20;49.50
69492;DHT22;56692;52.016;4.356;2023-04-03T10:24:54;17.20;49.50
69492;DHT22;56692;52.016;4.356;2023-04-03T10:29:52;17.20;49.50
69492;DHT22;56692;52.016;4.356;2023-04-03T10:32:42;17.30;49.50
69492;DHT22;56692;52.016;4.356;2023-04-03T10:35:25;17.30;49.40
69492;DHT22;56692;52.016;4.356;2023-04-03T10:44:26;17.50;49.20
69492;DHT22;56692;52.016;4.356;2023-04-03T10:47:04;17.60;49.20
69492;DHT22;56692;52.016;4.356;2023-04-03T10:49:50;17.60;49.10
69492;DHT22;56692;52.016;4.356;2023-04-03T10:52:39;17.70;49.00
69492;DHT22;56692;52.016;4.356;2023-04-03T10:57:49;17.60;48.90
69492;DHT22;56692;52.016;4.356;2023-04-03T11:00:23;17.60;48.80
69492;DHT22;56692;52.016;4.356;2023-04-03T11:02:58;17.60;49.00
69492;DHT22;56692;52.016;4.356;2023-04-03T11:05:47;17.50;49.00
69492;DHT22;56692;52.016;4.356;2023-04-03T11:10:49;17.50;49.00
69492;DHT22;56692;52.016;4.356;2023-04-03T11:13:46;17.50;49.00
69492;DHT22;56692;52.016;4.356;2023-04-03T11:16:20;17.40;49.10
69492;DHT22;56692;52.016;4.356;2023-04-03T11:19:18;17.40;49.10
69492;DHT22;56692;52.016;4.356;2023-04-03T11:24:33;17.40;49.20
69492;DHT22;56692;52.016;4.356;2023-04-03T11:27:02;17.40;49.10
69492;DHT22;56692;52.016;4.356;2023-04-03T11:29:35;17.40;49.30
69492;DHT22;56692;52.016;4.356;2023-04-03T11:32:26;17.40;49.30
69492;DHT22;56692;52.016;4.356;2023-04-03T11:34:56;17.40;49.20
69492;DHT22;56692;52.016;4.356;2023-04-03T11:37:38;17.50;49.10
69492;DHT22;56692;52.016;4.356;2023-04-03T11:40:29;17.70;49.20
69492;DHT22;56692;52.016;4.356;2023-04-03T11:43:07;17.70;49.10
69492;DHT22;56692;52.016;4.356;2023-04-03T11:46:01;17.80;49.00
69492;DHT22;56692;52.016;4.356;2023-04-03T11:50:58;17.90;48.80
69492;DHT22;56692;52.016;4.356;2023-04-03T11:53:31;18.00;48.60
69492;DHT22;56692;52.016;4.356;2023-04-03T11:55:59;18.00;48.60
69492;DHT22;56692;52.016;4.356;2023-04-03T11:58:28;18.00;48.60
69492;DHT22;56692;52.016;4.356;2023-04-03T12:01:03;17.90;48.80
69492;DHT22;56692;52.016;4.356;2023-04-03T12:03:30;17.90;48.90
69492;DHT22;56692;52.016;4.356;2023-04-03T12:13:38;17.90;49.10
69492;DHT22;56692;52.016;4.356;2023-04-03T12:16:06;17.90;49.10
69492;DHT22;56692;52.016;4.356;2023-04-03T12:21:20;17.80;49.00
69492;DHT22;56692;52.016;4.356;2023-04-03T12:26:32;17.90;49.10
69492;DHT22;56692;52.016;4.356;2023-04-03T12:29:02;17.90;49.20
69492;DHT22;56692;52.016;4.356;2023-04-03T12:34:49;17.90;49.20
69492;DHT22;56692;52.016;4.356;2023-04-03T12:37:43;17.90;49.20
69492;DHT22;56692;52.016;4.356;2023-04-03T12:48:30;18.40;48.60
69492;DHT22;56692;52.016;4.356;2023-04-03T12:50:57;18.50;48.40
69492;DHT22;56692;52.016;4.356;2023-04-03T12:53:27;18.80;47.90
69492;DHT22;56692;52.016;4.356;2023-04-03T12:56:26;18.90;47.50
69492;DHT22;56692;52.016;4.356;2023-04-03T12:58:54;18.70;48.00
69492;DHT22;56692;52.016;4.356;2023-04-03T13:01:25;18.60;48.20
69492;DHT22;56692;52.016;4.356;2023-04-03T13:03:56;18.50;48.50
69492;DHT22;56692;52.016;4.356;2023-04-03T13:06:38;18.40;48.70
69492;DHT22;56692;52.016;4.356;2023-04-03T13:09:05;18.40;48.70
69492;DHT22;56692;52.016;4.356;2023-04-03T13:11:37;18.40;48.80
69492;DHT22;56692;52.016;4.356;2023-04-03T13:14:14;18.40;48.90
69492;DHT22;56692;52.016;4.356;2023-04-03T13:16:40;18.40;48.80
69492;DHT22;56692;52.016;4.356;2023-04-03T13:19:16;18.40;48.90
69492;DHT22;56692;52.016;4.356;2023-04-03T13:21:42;18.40;48.80
69492;DHT22;56692;52.016;4.356;2023-04-03T13:24:09;18.40;48.90
69492;DHT22;56692;52.016;4.356;2023-04-03T13:26:36;18.40;48.80
69492;DHT22;56692;52.016;4.356;2023-04-03T13:29:06;18.40;48.80
69492;DHT22;56692;52.016;4.356;2023-04-03T13:31:34;18.40;48.80
69492;DHT22;56692;52.016;4.356;2023-04-03T13:36:39;18.40;48.80
69492;DHT22;56692;52.016;4.356;2023-04-03T13:39:28;18.40;48.80
69492;DHT22;56692;52.016;4.356;2023-04-03T13:41:54;18.40;48.80
69492;DHT22;56692;52.016;4.356;2023-04-03T13:46:54;18.40;48.70
69492;DHT22;56692;52.016;4.356;2023-04-03T13:51:56;18.40;48.70
69492;DHT22;56692;52.016;4.356;2023-04-03T13:54:45;18.40;48.60
69492;DHT22;56692;52.016;4.356;2023-04-03T13:57:16;18.40;48.50
69492;DHT22;56692;52.016;4.356;2023-04-03T13:59:42;18.40;48.50
69492;DHT22;56692;52.016;4.356;2023-04-03T14:07:06;18.50;48.50
69492;DHT22;56692;52.016;4.356;2023-04-03T14:09:32;18.50;48.40
69492;DHT22;56692;52.016;4.356;2023-04-03T14:12:00;18.50;48.50
69492;DHT22;56692;52.016;4.356;2023-04-03T14:14:35;18.50;48.40
69492;DHT22;56692;52.016;4.356;2023-04-03T14:17:15;18.50;48.40
69492;DHT22;56692;52.016;4.356;2023-04-03T14:19:41;18.50;48.30
69492;DHT22;56692;52.016;4.356;2023-04-03T14:22:17;18.50;48.40
69492;DHT22;56692;52.016;4.356;2023-04-03T14:24:44;18.50;48.50
69492;DHT22;56692;52.016;4.356;2023-04-03T14:29:52;18.50;48.60
69492;DHT22;56692;52.016;4.356;2023-04-03T14:32:23;18.50;48.70
69492;DHT22;56692;52.016;4.356;2023-04-03T14:34:50;18.50;48.60
69492;DHT22;56692;52.016;4.356;2023-04-03T14:37:22;18.50;48.70
69492;DHT22;56692;52.016;4.356;2023-04-03T14:39:50;18.60;48.70
69492;DHT22;56692;52.016;4.356;2023-04-03T14:42:24;18.60;48.70
69492;DHT22;56692;52.016;4.356;2023-04-03T14:44:51;18.60;48.60
69492;DHT22;56692;52.016;4.356;2023-04-03T14:47:21;18.60;48.70
69492;DHT22;56692;52.016;4.356;2023-04-03T14:49:47;18.60;48.60
69492;DHT22;56692;52.016;4.356;2023-04-03T14:52:23;18.60;48.70
69492;DHT22;56692;52.016;4.356;2023-04-03T14:54:49;18.60;48.70
69492;DHT22;56692;52.016;4.356;2023-04-03T14:57:16;18.50;48.70
69492;DHT22;56692;52.016;4.356;2023-04-03T14:59:43;18.50;48.70
69492;DHT22;56692;52.016;4.356;2023-04-03T15:02:31;18.50;48.70
69492;DHT22;56692;52.016;4.356;2023-04-03T15:04:59;18.50;48.80
69492;DHT22;56692;52.016;4.356;2023-04-03T15:07:27;18.50;48.80
69492;DHT22;56692;52.016;4.356;2023-04-03T15:09:54;18.40;48.80
69492;DHT22;56692;52.016;4.356;2023-04-03T15:12:22;18.40;48.80
69492;DHT22;56692;52.016;4.356;2023-04-03T15:14:48;18.40;48.80
69492;DHT22;56692;52.016;4.356;2023-04-03T15:17:20;18.40;48.70
69492;DHT22;56692;52.016;4.356;2023-04-03T15:19:46;18.30;48.60
69492;DHT22;56692;52.016;4.356;2023-04-03T15:22:16;18.30;48.60
69492;DHT22;56692;52.016;4.356;2023-04-03T15:24:43;18.30;48.80
69492;DHT22;56692;52.016;4.356;2023-04-03T15:27:10;18.30;48.50
69492;DHT22;56692;52.016;4.356;2023-04-03T15:29:37;18.30;48.70
69492;DHT22;56692;52.016;4.356;2023-04-03T15:32:04;18.30;48.70
69492;DHT22;56692;52.016;4.356;2023-04-03T15:34:31;18.30;48.60
69492;DHT22;56692;52.016;4.356;2023-04-03T15:36:56;18.30;48.50
69492;DHT22;56692;52.016;4.356;2023-04-03T15:39:22;18.30;48.40
69492;DHT22;56692;52.016;4.356;2023-04-03T15:41:50;18.30;48.10
69492;DHT22;56692;52.016;4.356;2023-04-03T15:44:17;18.30;48.70
69492;DHT22;56692;52.016;4.356;2023-04-03T15:46:44;18.40;49.80
69492;DHT22;56692;52.016;4.356;2023-04-03T15:49:11;18.50;49.60
69492;DHT22;56692;52.016;4.356;2023-04-03T15:51:37;18.60;49.70
69492;DHT22;56692;52.016;4.356;2023-04-03T15:54:02;18.80;49.70
69492;DHT22;56692;52.016;4.356;2023-04-03T15:56:28;18.90;49.70
69492;DHT22;56692;52.016;4.356;2023-04-03T15:58:54;19.00;49.50
69492;DHT22;56692;52.016;4.356;2023-04-03T16:01:20;19.20;49.30
69492;DHT22;56692;52.016;4.356;2023-04-03T16:03:46;19.20;49.40
69492;DHT22;56692;52.016;4.356;2023-04-03T16:06:15;19.30;49.70
69492;DHT22;56692;52.016;4.356;2023-04-03T16:08:42;19.30;49.50
69492;DHT22;56692;52.016;4.356;2023-04-03T16:11:08;19.30;49.80
69492;DHT22;56692;52.016;4.356;2023-04-03T16:13:34;19.20;50.00
69492;DHT22;56692;52.016;4.356;2023-04-03T16:16:00;19.20;50.00
69492;DHT22;56692;52.016;4.356;2023-04-03T16:18:28;19.20;49.50
69492;DHT22;56692;52.016;4.356;2023-04-03T16:20:54;19.10;49.80
69492;DHT22;56692;52.016;4.356;2023-04-03T16:23:20;18.90;49.70
69492;DHT22;56692;52.016;4.356;2023-04-03T16:25:47;18.90;49.50
69492;DHT22;56692;52.016;4.356;2023-04-03T16:28:14;18.80;50.00
69492;DHT22;56692;52.016;4.356;2023-04-03T16:30:44;18.80;49.70
69492;DHT22;56692;52.016;4.356;2023-04-03T16:33:11;18.70;49.90
69492;DHT22;56692;52.016;4.356;2023-04-03T16:35:37;18.70;49.90
69492;DHT22;56692;52.016;4.356;2023-04-03T16:38:03;18.70;50.10
69492;DHT22;56692;52.016;4.356;2023-04-03T16:40:29;18.60;49.90
69492;DHT22;56692;52.016;4.356;2023-04-03T16:42:55;18.60;49.90
69492;DHT22;56692;52.016;4.356;2023-04-03T16:45:21;18.60;50.10
69492;DHT22;56692;52.016;4.356;2023-04-03T16:47:47;18.60;49.80
69492;DHT22;56692;52.016;4.356;2023-04-03T16:50:13;18.50;50.00
69492;DHT22;56692;52.016;4.356;2023-04-03T16:52:38;18.50;50.00
69492;DHT22;56692;52.016;4.356;2023-04-03T16:55:06;18.50;49.90
69492;DHT22;56692;52.016;4.356;2023-04-03T16:57:32;18.60;49.60
69492;DHT22;56692;52.016;4.356;2023-04-03T16:59:57;18.50;49.80
69492;DHT22;56692;52.016;4.356;2023-04-03T17:02:24;18.60;50.40
69492;DHT22;56692;52.016;4.356;2023-04-03T17:04:50;18.70;51.40
69492;DHT22;56692;52.016;4.356;2023-04-03T17:07:23;18.80;51.00